| time (UTC) | temp C | wind direction | speed KPH | gust KPH | rain 1hr cm | rain 24hr cm | rain mn cm | humidity % | barometer mb |
| 20260510203046 | 33 | 131 | 20.9 | 27.4 | 0.00 | 0.00 | 0.00 | 44 | 1012.5 |
| 20260510201546 | 34 | 142 | 14.5 | 22.5 | 0.00 | 0.00 | 0.00 | 42 | 1012.5 |
| 20260510200112 | 33 | 179 | 9.7 | 22.5 | 0.00 | 0.00 | 0.00 | 47 | 1012.7 |
| 20260510194552 | 33 | 100 | 16.1 | 29.0 | 0.00 | 0.00 | 0.00 | 49 | 1013.0 |
| 20260510193056 | 32 | 119 | 14.5 | 20.9 | 0.00 | 0.00 | 0.00 | 51 | 1013.1 |
| 20260510191558 | 32 | 80 | 6.4 | 24.1 | 0.00 | 0.00 | 0.00 | 55 | 1013.4 |
| 20260510190049 | 32 | 145 | 12.9 | 22.5 | 0.00 | 0.00 | 0.00 | 53 | 1013.5 |
| 20260510184544 | 32 | 97 | 12.9 | 25.7 | 0.00 | 0.00 | 0.00 | 56 | 1013.5 |
| 20260510183056 | 32 | 105 | 17.7 | 27.4 | 0.00 | 0.00 | 0.00 | 56 | 1013.6 |
| 20260510181545 | 31 | 132 | 12.9 | 27.4 | 0.00 | 0.00 | 0.00 | 59 | 1013.6 |
| 20260510180052 | 31 | 118 | 14.5 | 24.1 | 0.00 | 0.00 | 0.00 | 60 | 1013.9 |
| 20260510174549 | 31 | 144 | 9.7 | 22.5 | 0.00 | 0.00 | 0.00 | 62 | 1014.1 |
| 20260510173058 | 31 | 132 | 8.0 | 22.5 | 0.00 | 0.00 | 0.00 | 64 | 1014.0 |
| 20260510171558 | 30 | 109 | 17.7 | 25.7 | 0.00 | 0.00 | 0.00 | 64 | 1014.1 |
| 20260510170050 | 30 | 127 | 16.1 | 27.4 | 0.00 | 0.00 | 0.00 | 66 | 1013.9 |
| 20260510164550 | 29 | 123 | 14.5 | 24.1 | 0.00 | 0.00 | 0.00 | 69 | 1014.1 |
| 20260510163051 | 28 | 129 | 14.5 | 27.4 | 0.00 | 0.00 | 0.00 | 71 | 1014.0 |
| 20260510161553 | 28 | 134 | 8.0 | 20.9 | 0.00 | 0.00 | 0.00 | 72 | 1013.9 |
| 20260510160055 | 28 | 122 | 9.7 | 27.4 | 0.00 | 0.00 | 0.00 | 73 | 1013.9 |
| 20260510154555 | 27 | 157 | 9.7 | 22.5 | 0.00 | 0.00 | 0.00 | 74 | 1013.6 |
| 20260510153054 | 27 | 137 | 8.0 | 19.3 | 0.00 | 0.00 | 0.00 | 76 | 1013.7 |
| 20260510151553 | 26 | 166 | 6.4 | 17.7 | 0.00 | 0.00 | 0.00 | 77 | 1013.4 |
| 20260510150057 | 26 | 132 | 8.0 | 14.5 | 0.00 | 0.00 | 0.00 | 79 | 1013.7 |
| 20260510144616 | 25 | 114 | 4.8 | 12.9 | 0.00 | 0.00 | 0.00 | 81 | 1013.5 |
| 20260510143054 | 25 | 144 | 8.0 | 16.1 | 0.00 | 0.00 | 0.00 | 82 | 1013.5 |
| 20260510141604 | 24 | 110 | 4.8 | 14.5 | 0.00 | 0.00 | 0.00 | 84 | 1013.7 |
| 20260510140055 | 23 | 88 | 6.4 | 11.3 | 0.00 | 0.00 | 0.00 | 86 | 1013.7 |
| 20260510134605 | 22 | 79 | 6.4 | 9.7 | 0.00 | 0.00 | 0.00 | 87 | 1013.7 |
| 20260510133102 | 22 | 88 | 9.7 | 12.9 | 0.00 | 0.00 | 0.00 | 89 | 1013.9 |
| 20260510131602 | 21 | 77 | 12.9 | 17.7 | 0.00 | 0.00 | 0.00 | 90 | 1013.5 |
| 20260510130028 | 20 | 86 | 11.3 | 17.7 | 0.00 | 0.00 | 0.00 | 91 | 1013.4 |
| 20260510124529 | 20 | 75 | 11.3 | 16.1 | 0.00 | 0.00 | 0.00 | 92 | 1013.2 |
| 20260510123032 | 19 | 72 | 11.3 | 16.1 | 0.00 | 0.00 | 0.00 | 92 | 1013.2 |
| 20260510121528 | 19 | 75 | 9.7 | 14.5 | 0.00 | 0.00 | 0.00 | 92 | 1013.2 |
| 20260510120028 | 19 | 59 | 6.4 | 9.7 | 0.00 | 0.00 | 0.00 | 91 | 1013.0 |
| 20260510114526 | 19 | 63 | 8.0 | 11.3 | 0.00 | 0.00 | 0.00 | 91 | 1012.8 |
| 20260510113035 | 20 | 46 | 6.4 | 14.5 | 0.00 | 0.00 | 0.00 | 90 | 1012.8 |
| 20260510111528 | 20 | 50 | 4.8 | 9.7 | 0.00 | 0.00 | 0.00 | 89 | 1012.6 |
| 20260510110027 | 20 | 66 | 6.4 | 8.0 | 0.00 | 0.00 | 0.00 | 87 | 1012.5 |
| 20260510104530 | 21 | 96 | 4.8 | 9.7 | 0.00 | 0.00 | 0.00 | 87 | 1012.4 |
| 20260510103027 | 21 | 96 | 4.8 | 11.3 | 0.00 | 0.00 | 0.00 | 86 | 1012.2 |
| 20260510101529 | 22 | 144 | 6.4 | 14.5 | 0.00 | 0.00 | 0.00 | 85 | 1012.1 |
| 20260510100029 | 22 | 129 | 8.0 | 16.1 | 0.00 | 0.00 | 0.00 | 85 | 1012.0 |
| 20260510094533 | 22 | 127 | 9.7 | 14.5 | 0.00 | 0.00 | 0.00 | 84 | 1012.3 |
| 20260510093032 | 22 | 124 | 8.0 | 16.1 | 0.00 | 0.00 | 0.00 | 82 | 1012.3 |
| 20260510091529 | 22 | 123 | 6.4 | 12.9 | 0.00 | 0.00 | 0.00 | 81 | 1012.1 |
| 20260510090030 | 22 | 71 | 4.8 | 8.0 | 0.00 | 0.00 | 0.00 | 79 | 1012.3 |
| 20260510084527 | 22 | 85 | 3.2 | 6.4 | 0.00 | 0.00 | 0.00 | 79 | 1012.1 |
| 20260510083032 | 22 | 131 | 4.8 | 9.7 | 0.00 | 0.00 | 0.00 | 77 | 1011.9 |
| 20260510081537 | 22 | 97 | 6.4 | 9.7 | 0.00 | 0.00 | 0.00 | 77 | 1011.8 |
| 20260510080029 | 23 | 79 | 6.4 | 11.3 | 0.00 | 0.00 | 0.00 | 75 | 1012.0 |
| 20260510074533 | 23 | 80 | 6.4 | 11.3 | 0.00 | 0.00 | 0.00 | 73 | 1012.0 |
| 20260510073042 | 24 | 136 | 6.4 | 11.3 | 0.00 | 0.00 | 0.00 | 71 | 1012.2 |
| 20260510071534 | 23 | 170 | 3.2 | 8.0 | 0.00 | 0.00 | 0.00 | 72 | 1012.2 |
| 20260510070037 | 23 | 138 | 1.6 | 4.8 | 0.00 | 0.00 | 0.00 | 73 | 1012.2 |
| 20260510064541 | 23 | 119 | 3.2 | 9.7 | 0.00 | 0.00 | 0.00 | 73 | 1012.1 |
| 20260510063040 | 23 | 124 | 4.8 | 11.3 | 0.00 | 0.00 | 0.00 | 72 | 1012.2 |
| 20260510061535 | 24 | 130 | 8.0 | 17.7 | 0.00 | 0.00 | 0.00 | 70 | 1012.1 |
| 20260510060038 | 24 | 120 | 12.9 | 17.7 | 0.00 | 0.00 | 0.00 | 69 | 1012.2 |
| 20260510054533 | 24 | 96 | 12.9 | 19.3 | 0.00 | 0.00 | 0.00 | 70 | 1012.0 |
| 20260510053036 | 24 | 107 | 12.9 | 16.1 | 0.00 | 0.00 | 0.00 | 70 | 1011.7 |
| 20260510051538 | 24 | 104 | 11.3 | 16.1 | 0.00 | 0.00 | 0.00 | 71 | 1011.8 |
| 20260510050042 | 24 | 105 | 11.3 | 14.5 | 0.00 | 0.00 | 0.00 | 69 | 1011.7 |
| 20260510044545 | 25 | 114 | 12.9 | 16.1 | 0.00 | 0.00 | 0.00 | 69 | 1011.8 |
| 20260510043035 | 24 | 96 | 9.7 | 12.9 | 0.00 | 0.00 | 0.00 | 70 | 1011.8 |
| 20260510041535 | 25 | 88 | 8.0 | 11.3 | 0.00 | 0.00 | 0.00 | 68 | 1011.7 |
| 20260510040033 | 25 | 102 | 4.8 | 9.7 | 0.00 | 0.00 | 0.00 | 67 | 1011.4 |
| 20260510034538 | 26 | 118 | 9.7 | 16.1 | 0.00 | 0.00 | 0.00 | 66 | 1011.4 |
| 20260510033039 | 26 | 113 | 12.9 | 19.3 | 0.00 | 0.00 | 0.00 | 65 | 1011.3 |
| 20260510031534 | 26 | 108 | 16.1 | 20.9 | 0.00 | 0.00 | 0.00 | 65 | 1011.2 |
| 20260510030035 | 26 | 109 | 12.9 | 19.3 | 0.00 | 0.00 | 0.00 | 66 | 1011.1 |
| 20260510024541 | 26 | 104 | 11.3 | 16.1 | 0.00 | 0.00 | 0.00 | 67 | 1011.0 |
| 20260510023035 | 27 | 84 | 11.3 | 14.5 | 0.00 | 0.00 | 0.00 | 64 | 1010.7 |
| 20260510021538 | 27 | 87 | 11.3 | 14.5 | 0.00 | 0.00 | 0.00 | 63 | 1010.6 |
| 20260510020034 | 28 | 103 | 11.3 | 16.1 | 0.00 | 0.00 | 0.00 | 61 | 1010.3 |
| 20260510014541 | 28 | 105 | 11.3 | 14.5 | 0.00 | 0.00 | 0.00 | 59 | 1010.0 |
| 20260510013037 | 29 | 114 | 11.3 | 17.7 | 0.00 | 0.00 | 0.00 | 56 | 1009.8 |
| 20260510011535 | 30 | 113 | 12.9 | 17.7 | 0.00 | 0.00 | 0.00 | 53 | 1009.7 |
| 20260510010033 | 31 | 107 | 12.9 | 19.3 | 0.00 | 0.00 | 0.00 | 51 | 1009.7 |
| 20260510004532 | 31 | 86 | 6.4 | 12.9 | 0.00 | 0.00 | 0.00 | 51 | 1009.3 |
| 20260510003036 | 31 | 90 | 6.4 | 9.7 | 0.00 | 0.00 | 0.00 | 50 | 1009.5 |
| 20260510001536 | 32 | 196 | 1.6 | 3.2 | 0.00 | 0.00 | 0.00 | 48 | 1009.5 |
| 20260510000039 | 32 | 196 | 1.6 | 3.2 | 0.00 | 0.00 | 0.00 | 45 | 1009.4 |
| 20260509234539 | 32 | 150 | 4.8 | 11.3 | 0.00 | 0.00 | 0.00 | 48 | 1009.4 |
| 20260509233037 | 32 | 42 | 1.6 | 8.0 | 0.00 | 0.00 | 0.00 | 46 | 1009.4 |
| 20260509231536 | 32 | 315 | 3.2 | 8.0 | 0.00 | 0.00 | 0.00 | 46 | 1009.4 |
| 20260509230036 | 32 | 303 | 3.2 | 6.4 | 0.00 | 0.00 | 0.00 | 45 | 1009.4 |
| 20260509224540 | 32 | 182 | 0.0 | 4.8 | 0.00 | 0.00 | 0.00 | 44 | 1009.4 |
| 20260509223037 | 32 | 191 | 0.0 | 9.7 | 0.00 | 0.00 | 0.00 | 46 | 1009.4 |
| 20260509221535 | 32 | 355 | 1.6 | 11.3 | 0.00 | 0.00 | 0.00 | 47 | 1009.5 |
| 20260509220033 | 32 | 265 | 3.2 | 12.9 | 0.00 | 0.00 | 0.00 | 49 | 1009.7 |
| 20260509214540 | 32 | 188 | 4.8 | 17.7 | 0.00 | 0.00 | 0.00 | 49 | 1009.8 |
| 20260509213038 | 32 | 108 | 0.0 | 6.4 | 0.00 | 0.00 | 0.00 | 51 | 1009.9 |
| 20260509211537 | 32 | 249 | 3.2 | 16.1 | 0.00 | 0.00 | 0.00 | 50 | 1010.2 |
| 20260509210049 | 32 | 259 | 6.4 | 19.3 | 0.00 | 0.00 | 0.00 | 47 | 1010.4 |
| 20260509204543 | 31 | 216 | 3.2 | 11.3 | 0.00 | 0.00 | 0.00 | 50 | 1010.8 |